Time;durP1;ratioP1;P1;durP2;ratioP2;P2;SDS_P1;SDS_P2;PMS_P1;PMS_P2;Temp;Humidity;BMP_temperature;BMP_pressure;BME280_temperature;BME280_humidity;BME280_pressure;Samples;Min_cycle;Max_cycle;Signal;HPM_P1;HPM_P2
2022/11/12 00:00:45;;;;;;;94.07;48.68;;;;;;;2.70;100.00;99610.56;1719208;83;21007;-82
2022/11/12 00:03:13;;;;;;;88.92;52.10;;;;;;;2.68;100.00;99613.95;1719284;83;21009;-82
2022/11/12 00:05:40;;;;;;;90.22;46.40;;;;;;;2.66;100.00;99628.55;1719126;83;21742;-82
2022/11/12 00:08:07;;;;;;;83.52;45.63;;;;;;;2.62;100.00;99624.06;1719101;83;21396;-78
2022/11/12 00:10:34;;;;;;;90.83;47.93;;;;;;;2.61;100.00;99620.24;1719205;83;21000;-78
2022/11/12 00:13:01;;;;;;;93.72;49.60;;;;;;;2.60;100.00;99622.60;1719003;83;20988;-78
2022/11/12 00:15:28;;;;;;;79.75;46.83;;;;;;;2.42;100.00;99632.39;1719267;83;20996;-82
2022/11/12 00:17:55;;;;;;;83.35;45.45;;;;;;;2.36;100.00;99628.61;1719272;83;21684;-78
2022/11/12 00:20:22;;;;;;;79.90;44.35;;;;;;;2.35;100.00;99630.14;1718990;83;21000;-78
2022/11/12 00:22:49;;;;;;;80.92;46.10;;;;;;;2.29;100.00;99633.55;1719291;83;21071;-79
2022/11/12 00:25:16;;;;;;;86.25;44.65;;;;;;;2.28;100.00;99627.88;1719425;83;20961;-82
2022/11/12 00:27:43;;;;;;;75.60;44.30;;;;;;;2.28;100.00;99627.37;1719257;83;20995;-79
2022/11/12 00:30:10;;;;;;;83.33;48.02;;;;;;;2.20;100.00;99640.84;1719200;83;20997;-82
2022/11/12 00:32:37;;;;;;;80.75;44.95;;;;;;;2.15;100.00;99632.58;1714753;83;21403;-82
2022/11/12 00:35:05;;;;;;;80.15;46.50;;;;;;;2.14;100.00;99642.95;1714155;83;21018;-78
2022/11/12 00:37:32;;;;;;;76.82;40.05;;;;;;;2.06;100.00;99636.36;1714230;82;20968;-82
2022/11/12 00:39:59;;;;;;;76.33;44.00;;;;;;;2.06;100.00;99633.18;1714252;83;20991;-82
2022/11/12 00:42:26;;;;;;;71.25;40.00;;;;;;;1.96;100.00;99625.41;1714098;83;21112;-81
2022/11/12 00:44:52;;;;;;;70.60;42.43;;;;;;;1.96;100.00;99632.09;1714169;83;21498;-82
2022/11/12 00:47:19;;;;;;;77.87;38.78;;;;;;;1.97;100.00;99628.44;1714276;83;20995;-82
2022/11/12 00:49:46;;;;;;;67.35;38.02;;;;;;;1.97;100.00;99628.95;1714124;83;21446;-82
2022/11/12 00:52:13;;;;;;;72.27;38.05;;;;;;;1.97;100.00;99626.27;1714271;83;20978;-82
2022/11/12 00:54:40;;;;;;;69.30;38.90;;;;;;;1.95;100.00;99626.94;1714218;83;20940;-82
2022/11/12 00:57:07;;;;;;;69.72;36.33;;;;;;;1.93;100.00;99631.66;1713640;82;20974;-78
2022/11/12 00:59:34;;;;;;;74.37;40.23;;;;;;;1.96;100.00;99620.06;1712672;83;21419;-78
2022/11/12 01:02:01;;;;;;;78.85;44.80;;;;;;;1.96;100.00;99621.91;1712575;83;20994;-82
2022/11/12 01:04:28;;;;;;;72.00;42.17;;;;;;;1.96;100.00;99625.41;1712385;82;20955;-82
2022/11/12 01:06:54;;;;;;;65.35;36.30;;;;;;;1.93;100.00;99640.50;1712386;83;21025;-79
2022/11/12 01:09:21;;;;;;;71.47;37.98;;;;;;;1.90;100.00;99632.86;1712292;82;21449;-78
2022/11/12 01:11:48;;;;;;;70.20;40.58;;;;;;;1.90;100.00;99636.87;1712438;83;21006;-82
2022/11/12 01:14:15;;;;;;;70.90;40.48;;;;;;;1.88;100.00;99632.22;1712277;82;20967;-80
2022/11/12 01:16:42;;;;;;;63.50;37.13;;;;;;;1.83;100.00;99632.44;1712398;83;20967;-82
2022/11/12 01:19:10;;;;;;;70.70;37.35;;;;;;;1.81;100.00;99631.80;1712421;82;21490;-78
2022/11/12 01:21:41;;;;;;;70.22;35.80;;;;;;;1.73;100.00;99625.21;1712377;83;21423;-82
2022/11/12 01:24:08;;;;;;;59.75;33.55;;;;;;;1.73;100.00;99626.55;1712468;82;21004;-82
2022/11/12 01:26:35;;;;;;;68.95;38.28;;;;;;;1.71;100.00;99626.73;1712380;83;21061;-78
2022/11/12 01:29:03;;;;;;;65.57;38.67;;;;;;;1.69;100.00;99626.89;1712434;82;20987;-78
2022/11/12 01:31:33;;;;;;;70.22;36.23;;;;;;;1.71;100.00;99633.41;1723761;82;21057;-78
2022/11/12 01:34:02;;;;;;;61.30;33.13;;;;;;;1.74;100.00;99634.88;1738808;81;21504;-82
2022/11/12 01:36:33;;;;;;;62.27;33.88;;;;;;;1.75;100.00;99635.20;1738829;82;21100;-82
2022/11/12 01:39:00;;;;;;;64.50;34.55;;;;;;;1.70;100.00;99641.91;1738776;81;21425;-81
2022/11/12 01:41:30;;;;;;;62.17;35.05;;;;;;;1.70;100.00;99634.41;1738733;82;21426;-78
2022/11/12 01:44:23;;;;;;;63.28;35.05;;;;;;;1.68;100.00;99636.44;1738901;81;21053;-82
2022/11/12 01:46:56;;;;;;;67.87;34.55;;;;;;;1.65;100.00;99634.97;1719612;82;21067;-78
2022/11/12 01:50:00;;;;;;;55.50;32.28;;;;;;;1.55;100.00;99633.07;1738921;81;21000;-82
2022/11/12 01:52:34;;;;;;;64.60;34.25;;;;;;;1.55;100.00;99628.23;1739129;81;21071;-82
2022/11/12 01:55:08;;;;;;;65.95;36.90;;;;;;;1.45;100.00;99627.64;1739186;82;21008;-78
2022/11/12 01:57:40;;;;;;;70.70;41.15;;;;;;;1.41;100.00;99637.88;1726295;82;21035;-78
2022/11/12 02:00:10;;;;;;;69.92;39.75;;;;;;;1.35;100.00;99637.25;1714113;82;20946;-78
2022/11/12 02:02:37;;;;;;;76.40;38.35;;;;;;;1.33;100.00;99645.96;1714227;83;21462;-78
2022/11/12 02:05:06;;;;;;;75.80;39.45;;;;;;;1.28;100.00;99639.84;1714340;83;21053;-78
2022/11/12 02:07:34;;;;;;;65.75;35.63;;;;;;;1.30;100.00;99648.50;1714339;82;21095;-78
2022/11/12 02:10:01;;;;;;;59.08;34.83;;;;;;;1.32;100.00;99649.65;1714309;82;21009;-81
2022/11/12 02:15:13;;;;;;;63.98;31.82;;;;;;;1.26;100.00;99649.85;1714329;82;21045;-82
2022/11/12 02:17:40;;;;;;;62.75;32.33;;;;;;;1.25;100.00;99647.37;1714383;83;21446;-78
2022/11/12 02:20:09;;;;;;;58.00;33.13;;;;;;;1.19;100.00;99646.74;1714334;83;21013;-78
2022/11/12 02:22:36;;;;;;;57.90;31.73;;;;;;;1.18;100.00;99643.24;1714226;82;21419;-78
2022/11/12 02:25:04;;;;;;;65.45;35.70;;;;;;;1.12;100.00;99637.31;1714278;83;21005;-82
2022/11/12 02:27:31;;;;;;;65.17;33.90;;;;;;;1.09;100.00;99640.31;1714162;83;22045;-78
2022/11/12 02:29:58;;;;;;;55.92;32.30;;;;;;;1.06;100.00;99632.17;1700892;83;20983;-81
2022/11/12 02:32:25;;;;;;;59.08;34.73;;;;;;;1.00;100.00;99628.88;1708313;83;21514;-78
2022/11/12 02:34:52;;;;;;;53.20;31.93;;;;;;;0.99;100.00;99639.23;1714285;83;21467;-78
2022/11/12 02:37:19;;;;;;;57.40;31.42;;;;;;;0.96;100.00;99638.77;1713945;82;21054;-82
2022/11/12 02:39:46;;;;;;;55.15;30.60;;;;;;;0.95;100.00;99637.94;1714359;83;20983;-82
2022/11/12 02:42:13;;;;;;;55.52;30.23;;;;;;;0.96;100.00;99634.27;1713815;83;21011;-82
2022/11/12 02:44:39;;;;;;;61.10;32.48;;;;;;;0.96;100.00;99636.09;1714373;83;21026;-78
2022/11/12 02:47:06;;;;;;;62.40;29.42;;;;;;;0.92;100.00;99640.95;1714064;83;21412;-82
2022/11/12 02:49:33;;;;;;;51.83;30.68;;;;;;;0.94;100.00;99643.44;1714176;83;21042;-82
2022/11/12 02:52:00;;;;;;;55.38;30.77;;;;;;;0.93;100.00;99641.27;1714117;83;20971;-78
2022/11/12 02:54:27;;;;;;;50.67;28.10;;;;;;;0.92;100.00;99645.45;1714047;83;21028;-78
2022/11/12 02:56:54;;;;;;;58.45;30.92;;;;;;;0.88;100.00;99646.84;1715257;83;21091;-82
2022/11/12 02:59:21;;;;;;;55.90;30.48;;;;;;;0.85;100.00;99648.00;1719175;83;21012;-82
2022/11/12 03:01:48;;;;;;;53.38;27.30;;;;;;;0.80;100.00;99647.22;1719316;83;21456;-79
2022/11/12 03:04:15;;;;;;;52.50;28.07;;;;;;;0.74;100.00;99650.58;1719015;83;21016;-78
2022/11/12 03:06:41;;;;;;;51.80;28.23;;;;;;;0.73;100.00;99649.42;1719266;83;21043;-78
2022/11/12 03:09:11;;;;;;;48.20;28.40;;;;;;;0.72;100.00;99640.59;1719181;83;21020;-82
2022/11/12 03:11:38;;;;;;;51.65;28.10;;;;;;;0.69;100.00;99644.96;1719192;83;21163;-79
2022/11/12 03:14:05;;;;;;;46.23;24.47;;;;;;;0.63;100.00;99645.66;1719150;83;21492;-82
2022/11/12 03:16:31;;;;;;;52.15;25.92;;;;;;;0.66;100.00;99643.96;1719209;83;21055;-82
2022/11/12 03:18:58;;;;;;;48.85;28.85;;;;;;;0.61;100.00;99642.34;1719163;83;21291;-78
2022/11/12 03:21:25;;;;;;;49.03;28.07;;;;;;;0.64;100.00;99641.15;1719221;83;20957;-78
2022/11/12 03:23:52;;;;;;;41.20;23.77;;;;;;;0.64;100.00;99635.81;1719239;83;21009;-82
2022/11/12 03:26:19;;;;;;;45.33;24.85;;;;;;;0.63;100.00;99642.98;1719120;83;21011;-81
2022/11/12 03:28:46;;;;;;;44.50;26.42;;;;;;;0.60;100.00;99634.02;1719259;83;21417;-78
2022/11/12 03:31:13;;;;;;;48.63;27.82;;;;;;;0.56;100.00;99640.19;1717553;83;21011;-78
2022/11/12 03:33:39;;;;;;;48.17;26.52;;;;;;;0.55;100.00;99635.03;1714143;83;20963;-82
2022/11/12 03:36:07;;;;;;;38.17;22.93;;;;;;;0.59;100.00;99634.17;1714257;83;20972;-81
2022/11/12 03:38:34;;;;;;;42.45;24.40;;;;;;;0.59;100.00;99632.83;1714085;83;21034;-78
2022/11/12 03:41:00;;;;;;;41.63;23.45;;;;;;;0.62;100.00;99637.33;1714137;83;21035;-78
2022/11/12 03:43:27;;;;;;;48.48;26.90;;;;;;;0.63;100.00;99638.98;1714159;83;21016;-82
2022/11/12 03:45:54;;;;;;;44.88;25.05;;;;;;;0.67;100.00;99638.12;1714300;83;21550;-78
2022/11/12 03:48:21;;;;;;;42.67;24.25;;;;;;;0.68;100.00;99637.94;1714076;83;21055;-78
2022/11/12 03:50:48;;;;;;;41.80;22.55;;;;;;;0.70;100.00;99638.61;1714202;83;21043;-78
2022/11/12 03:53:15;;;;;;;44.27;23.10;;;;;;;0.72;100.00;99632.59;1714159;83;21447;-78
2022/11/12 03:55:42;;;;;;;45.05;23.85;;;;;;;0.70;100.00;99634.61;1714067;83;21446;-81
2022/11/12 03:58:09;;;;;;;39.78;22.70;;;;;;;0.67;100.00;99638.95;1718041;83;20996;-81
2022/11/12 04:00:35;;;;;;;40.60;23.60;;;;;;;0.67;100.00;99627.45;1719425;83;21037;-78
2022/11/12 04:03:02;;;;;;;38.35;21.35;;;;;;;0.66;100.00;99632.45;1719219;83;21035;-82
2022/11/12 04:08:37;;;;;;;37.10;20.68;;;;;;;0.69;100.00;99636.13;1719354;83;21521;-78
2022/11/12 04:11:14;;;;;;;35.98;19.87;;;;;;;0.66;100.00;99631.12;1719015;83;21063;-78
2022/11/12 04:13:41;;;;;;;35.68;21.75;;;;;;;0.68;100.00;99628.59;1719158;83;21211;-81
2022/11/12 04:21:55;;;;;;;36.45;21.20;;;;;;;0.68;100.00;99635.27;1719204;83;21004;-81
2022/11/12 04:27:23;;;;;;;30.72;18.52;;;;;;;0.69;100.00;99626.79;1719465;83;21260;-80
2022/11/12 04:32:39;;;;;;;47.35;24.02;;;;;;;0.66;100.00;99629.79;1714629;83;21004;-82
2022/11/12 04:35:07;;;;;;;37.00;21.17;;;;;;;0.64;100.00;99623.81;1713788;82;20968;-82
2022/11/12 04:37:44;;;;;;;31.90;17.45;;;;;;;0.59;100.00;99631.00;1714187;83;22387;-78
2022/11/12 04:45:51;;;;;;;46.25;25.23;;;;;;;0.44;100.00;99624.27;1714453;83;20979;-78
2022/11/12 04:48:18;;;;;;;41.02;24.05;;;;;;;0.36;100.00;99619.48;1714184;83;21105;-81
2022/11/12 04:50:54;;;;;;;42.80;23.70;;;;;;;0.32;100.00;99626.98;1714308;83;21011;-82
2022/11/12 04:53:21;;;;;;;43.78;22.75;;;;;;;0.26;100.00;99623.70;1714166;83;21498;-78
2022/11/12 04:55:51;;;;;;;40.12;20.88;;;;;;;0.20;100.00;99617.73;1714262;83;21016;-81
2022/11/12 04:58:18;;;;;;;37.38;20.68;;;;;;;0.19;100.00;99620.07;1712650;82;21040;-81
2022/11/12 05:00:46;;;;;;;38.63;22.82;;;;;;;0.19;100.00;99620.07;1712837;83;21424;-81
2022/11/12 05:03:13;;;;;;;34.48;21.27;;;;;;;0.18;100.00;99623.74;1712361;82;21479;-82
2022/11/12 05:05:40;;;;;;;43.33;24.40;;;;;;;0.17;100.00;99622.05;1712824;83;20995;-82
2022/11/12 05:08:06;;;;;;;46.30;24.27;;;;;;;0.20;100.00;99625.22;1712416;82;21031;-78
2022/11/12 05:10:33;;;;;;;38.70;22.62;;;;;;;0.21;100.00;99623.38;1712343;83;21025;-78
2022/11/12 05:13:00;;;;;;;46.23;24.23;;;;;;;0.17;100.00;99621.58;1712484;82;21034;-78
2022/11/12 05:15:27;;;;;;;46.33;24.98;;;;;;;0.10;100.00;99622.45;1712667;83;21005;-81
2022/11/12 05:17:54;;;;;;;50.17;24.75;;;;;;;0.09;100.00;99619.45;1712399;82;21721;-81
2022/11/12 05:20:21;;;;;;;44.20;24.02;;;;;;;0.05;100.00;99617.63;1712735;83;20979;-82
2022/11/12 05:22:48;;;;;;;50.45;28.12;;;;;;;0.03;100.00;99614.81;1712506;82;20978;-82
2022/11/12 05:25:15;;;;;;;41.37;24.20;;;;;;;0.04;100.00;99622.63;1712743;83;20994;-82
2022/11/12 05:27:42;;;;;;;45.35;22.85;;;;;;;0.06;100.00;99618.45;1712493;82;21061;-81
2022/11/12 05:30:10;;;;;;;48.48;21.60;;;;;;;-0.01;100.00;99612.47;1712907;83;21027;-82
2022/11/12 05:32:37;;;;;;;38.60;22.35;;;;;;;0.03;100.00;99619.64;1713963;83;20980;-82
2022/11/12 05:35:04;;;;;;;36.93;21.48;;;;;;;0.07;100.00;99618.27;1714225;83;21003;-81
2022/11/12 05:37:31;;;;;;;45.98;23.42;;;;;;;0.07;100.00;99622.27;1713872;82;21483;-81
2022/11/12 05:39:58;;;;;;;38.48;19.35;;;;;;;0.08;100.00;99617.77;1714271;83;20999;-78
2022/11/12 05:42:25;;;;;;;35.52;20.25;;;;;;;0.07;100.00;99622.77;1714107;83;21133;-81
2022/11/12 05:44:52;;;;;;;45.55;22.27;;;;;;;0.05;100.00;99626.95;1714397;82;21043;-78
2022/11/12 05:47:18;;;;;;;41.08;21.00;;;;;;;0.07;100.00;99627.60;1714028;83;20971;-81
2022/11/12 05:49:45;;;;;;;36.68;20.20;;;;;;;0.08;100.00;99624.43;1714329;83;21423;-78
2022/11/12 05:52:12;;;;;;;38.50;19.37;;;;;;;0.06;100.00;99624.61;1714219;83;21050;-82
2022/11/12 05:54:39;;;;;;;37.70;19.45;;;;;;;0.04;100.00;99623.12;1714413;83;20987;-78
2022/11/12 05:57:06;;;;;;;35.25;20.45;;;;;;;0.04;100.00;99625.80;1715638;83;21000;-82
2022/11/12 05:59:33;;;;;;;33.83;20.12;;;;;;;0.09;100.00;99631.45;1719408;83;21440;-78
2022/11/12 06:02:00;;;;;;;38.90;20.35;;;;;;;0.08;100.00;99633.77;1719312;83;21032;-78
2022/11/12 06:04:27;;;;;;;35.83;19.55;;;;;;;0.04;100.00;99631.95;1719129;83;20993;-78
2022/11/12 06:06:53;;;;;;;39.30;21.77;;;;;;;0.07;100.00;99639.59;1719457;83;21051;-78
2022/11/12 06:09:20;;;;;;;36.93;21.90;;;;;;;0.08;100.00;99637.76;1719026;83;20989;-82
2022/11/12 06:11:47;;;;;;;34.43;19.65;;;;;;;0.08;100.00;99641.25;1719370;83;21436;-78
2022/11/12 06:14:14;;;;;;;40.03;19.12;;;;;;;0.11;100.00;99642.27;1719227;83;20972;-78
2022/11/12 06:16:41;;;;;;;39.00;17.50;;;;;;;0.16;100.00;99642.55;1719252;83;21166;-82
2022/11/12 06:19:08;;;;;;;33.73;17.10;;;;;;;0.15;100.00;99647.56;1719263;83;21739;-81
2022/11/12 06:21:35;;;;;;;34.67;19.40;;;;;;;0.22;100.00;99643.20;1719219;83;21135;-78
2022/11/12 06:24:02;;;;;;;37.78;20.50;;;;;;;0.32;100.00;99652.82;1719184;83;21004;-78
2022/11/12 06:26:29;;;;;;;37.83;22.35;;;;;;;0.35;100.00;99653.33;1719327;83;21021;-78
2022/11/12 06:28:56;;;;;;;37.53;17.87;;;;;;;0.41;100.00;99653.11;1719296;83;21461;-78
2022/11/12 06:31:23;;;;;;;31.23;18.75;;;;;;;0.47;100.00;99657.25;1717318;83;21022;-83
2022/11/12 06:33:50;;;;;;;35.43;19.73;;;;;;;0.53;100.00;99660.56;1714124;83;20971;-78
2022/11/12 06:36:18;;;;;;;39.13;22.60;;;;;;;0.56;100.00;99658.03;1714105;82;20974;-78
2022/11/12 06:38:45;;;;;;;90.17;41.57;;;;;;;0.64;100.00;99664.66;1714219;82;21008;-82
2022/11/12 06:41:12;;;;;;;86.67;44.42;;;;;;;0.64;100.00;99664.66;1714300;83;21369;-82
2022/11/12 06:43:39;;;;;;;77.87;42.00;;;;;;;0.72;100.00;99659.27;1714008;82;21033;-82
2022/11/12 06:46:13;;;;;;;48.48;28.98;;;;;;;0.88;100.00;99658.84;1714203;83;20974;-79
2022/11/12 06:48:40;;;;;;;39.73;21.73;;;;;;;0.96;100.00;99658.79;1714009;82;21430;-82
2022/11/12 06:51:18;;;;;;;37.50;22.22;;;;;;;1.06;100.00;99668.22;1707915;83;20982;-78
2022/11/12 06:53:45;;;;;;;33.23;20.20;;;;;;;1.32;100.00;99675.02;1711706;82;21041;-81
2022/11/12 06:56:12;;;;;;;37.30;20.12;;;;;;;1.48;100.00;99678.89;1724790;82;20997;-81
2022/11/12 06:58:39;;;;;;;38.73;21.57;;;;;;;1.46;100.00;99676.91;1706765;82;21013;-78
2022/11/12 07:01:09;;;;;;;37.13;23.07;;;;;;;1.43;100.00;99672.41;1687674;82;20958;-79
2022/11/12 07:03:36;;;;;;;34.53;19.30;;;;;;;1.44;100.00;99668.22;1685264;83;21028;-81
2022/11/12 07:06:06;;;;;;;37.80;20.65;;;;;;;1.43;100.00;99675.92;1685681;84;21401;-82
2022/11/12 07:08:33;;;;;;;46.23;23.65;;;;;;;1.46;100.00;99676.91;1685202;83;21719;-78
2022/11/12 07:11:00;;;;;;;46.53;24.15;;;;;;;1.48;100.00;99676.73;1685521;84;21413;-78
2022/11/12 07:13:30;;;;;;;38.55;21.10;;;;;;;1.54;100.00;99668.83;1685229;83;20984;-78
2022/11/12 07:15:59;;;;;;;43.17;26.02;;;;;;;1.60;100.00;99674.75;1685444;85;20985;-78
2022/11/12 07:18:26;;;;;;;53.40;25.20;;;;;;;1.60;100.00;99672.59;1685395;83;21013;-82
2022/11/12 07:21:06;;;;;;;45.20;23.00;;;;;;;1.62;100.00;99676.77;1685590;84;21010;-82
2022/11/12 07:23:34;;;;;;;43.40;24.37;;;;;;;1.71;100.00;99681.52;1685098;83;21004;-82
2022/11/12 07:26:07;;;;;;;382.90;167.62;;;;;;;1.72;100.00;99670.33;1685672;85;21433;-82
2022/11/12 07:28:34;;;;;;;105.25;53.23;;;;;;;1.76;100.00;99672.43;1684177;83;21020;-82
2022/11/12 07:31:04;;;;;;;175.90;107.95;;;;;;;1.80;100.00;99672.91;1697475;82;20984;-82
2022/11/12 07:33:30;;;;;;;82.30;55.65;;;;;;;1.83;100.00;99673.37;1738761;81;21165;-82
2022/11/12 07:36:07;;;;;;;56.92;32.60;;;;;;;1.90;100.00;99674.30;1739079;82;20945;-78
2022/11/12 07:38:36;;;;;;;39.60;25.20;;;;;;;1.95;100.00;99661.19;1738811;81;21433;-78
2022/11/12 07:41:07;;;;;;;36.20;22.27;;;;;;;2.08;100.00;99670.42;1739057;82;21012;-82
2022/11/12 07:43:35;;;;;;;67.50;44.45;;;;;;;2.19;100.00;99662.75;1738757;81;21006;-78
2022/11/12 07:46:08;;;;;;;674.73;285.43;;;;;;;2.28;100.00;99657.31;1738946;82;21002;-78
2022/11/12 07:48:35;;;;;;;490.40;243.25;;;;;;;2.36;100.00;99661.22;1702587;82;21008;-78
2022/11/12 07:51:04;;;;;;;136.15;70.47;;;;;;;2.44;100.00;99655.77;1707921;84;21044;-78
2022/11/12 07:53:31;;;;;;;117.80;61.48;;;;;;;2.50;100.00;99660.38;1707732;84;20965;-78
2022/11/12 07:56:00;;;;;;;66.10;35.13;;;;;;;2.55;100.00;99658.77;1708098;84;20969;-78
2022/11/12 07:58:28;;;;;;;43.50;26.40;;;;;;;2.64;100.00;99654.65;1683338;83;26897;-82
2022/11/12 08:00:55;;;;;;;33.42;22.25;;;;;;;2.74;100.00;99651.18;1703675;83;21073;-82
2022/11/12 08:03:22;;;;;;;48.13;25.17;;;;;;;2.83;100.00;99662.09;1716873;82;21369;-78
2022/11/12 08:05:49;;;;;;;134.95;49.27;;;;;;;2.93;100.00;99653.74;1704259;82;21068;-82
2022/11/12 08:08:16;;;;;;;71.15;34.40;;;;;;;3.02;100.00;99656.09;1707239;82;21053;-78
2022/11/12 08:10:43;;;;;;;55.65;27.80;;;;;;;3.11;100.00;99658.97;1694181;82;21017;-82
2022/11/12 08:13:09;;;;;;;55.35;27.37;;;;;;;3.23;100.00;99661.12;1698406;82;21492;-82
2022/11/12 08:15:36;;;;;;;61.42;30.27;;;;;;;3.34;100.00;99657.95;1706389;82;20935;-79
2022/11/12 08:18:03;;;;;;;36.77;20.40;;;;;;;3.46;100.00;99662.25;1713758;83;20997;-82
2022/11/12 08:20:30;;;;;;;38.10;22.35;;;;;;;3.59;100.00;99661.86;1709840;82;20985;-78
2022/11/12 08:23:00;;;;;;;40.38;20.25;;;;;;;3.72;100.00;99660.29;1713401;82;21010;-82
2022/11/12 08:25:27;;;;;;;37.58;22.05;;;;;;;3.84;100.00;99662.22;1707986;82;21011;-82
2022/11/12 08:27:58;;;;;;;39.88;21.87;;;;;;;3.96;100.00;99662.52;1712052;82;20978;-83
2022/11/12 08:30:26;;;;;;;34.50;19.15;;;;;;;4.08;100.00;99656.08;1708519;82;21095;-78
2022/11/12 08:33:02;;;;;;;44.58;22.07;;;;;;;4.20;100.00;99653.99;1725303;82;21129;-82
2022/11/12 08:35:29;;;;;;;72.53;30.12;;;;;;;4.33;100.00;99655.89;1705350;83;21014;-79
2022/11/12 08:38:03;;;;;;;59.85;26.02;;;;;;;4.45;100.00;99657.52;1709015;83;20981;-81
2022/11/12 08:40:30;;;;;;;70.92;34.80;;;;;;;4.58;100.00;99654.04;1718484;82;21056;-78
2022/11/12 08:43:03;;;;;;;41.88;21.90;;;;;;;4.71;100.00;99662.98;1708027;82;21064;-79
2022/11/12 08:45:35;;;;;;;34.20;16.75;;;;;;;4.84;100.00;99670.75;1702181;82;21009;-78
2022/11/12 08:48:08;;;;;;;34.63;16.80;;;;;;;4.95;100.00;99664.77;1701027;82;21553;-79
2022/11/12 08:50:35;;;;;;;30.12;15.65;;;;;;;5.05;100.00;99661.20;1698183;82;21023;-79
2022/11/12 08:53:11;;;;;;;28.98;15.23;;;;;;;5.18;100.00;99663.89;1713829;83;21052;-78
2022/11/12 08:55:38;;;;;;;30.32;17.17;;;;;;;5.29;100.00;99662.45;1708275;82;20989;-78
2022/11/12 08:58:05;;;;;;;37.00;19.50;;;;;;;5.39;100.00;99665.59;1706536;82;21003;-78
2022/11/12 09:00:35;;;;;;;41.98;28.32;;;;;;;5.49;100.00;99668.69;1709085;82;21467;-79
2022/11/12 09:03:03;;;;;;;47.15;26.77;;;;;;;5.59;100.00;99666.41;1714121;82;21045;-82
2022/11/12 09:05:30;;;;;;;39.13;24.57;;;;;;;5.71;100.00;99665.25;1710249;82;21489;-83
2022/11/12 09:07:59;;;;;;;44.67;25.68;;;;;;;5.79;100.00;99661.00;1709011;82;20993;-79
2022/11/12 09:10:26;;;;;;;39.80;22.42;;;;;;;5.96;100.00;99662.77;1708245;83;21486;-78
2022/11/12 09:12:53;;;;;;;35.60;22.30;;;;;;;6.07;100.00;99662.67;1713966;82;20976;-82
2022/11/12 09:15:20;;;;;;;42.17;24.90;;;;;;;6.19;100.00;99666.34;1730495;82;22346;-78
2022/11/12 09:17:47;;;;;;;46.28;25.40;;;;;;;6.28;100.00;99661.56;1712550;83;21399;-82
2022/11/12 09:20:14;;;;;;;50.12;32.78;;;;;;;6.35;100.00;99658.33;1712777;83;21062;-79
2022/11/12 09:22:41;;;;;;;49.53;29.37;;;;;;;6.42;100.00;99656.45;1712618;83;20979;-83
2022/11/12 09:25:08;;;;;;;44.10;22.80;;;;;;;6.51;100.00;99659.20;1712817;82;21629;-79
2022/11/12 09:27:35;;;;;;;39.27;23.77;;;;;;;6.68;100.00;99663.06;1712514;83;21056;-82
2022/11/12 09:30:03;;;;;;;38.65;23.77;;;;;;;6.85;100.00;99660.70;1712701;82;20986;-79
2022/11/12 09:32:30;;;;;;;41.05;24.05;;;;;;;6.94;100.00;99659.41;1734975;81;21004;-79
2022/11/12 09:34:57;;;;;;;44.93;26.62;;;;;;;7.02;100.00;99652.41;1711668;82;20984;-79
2022/11/12 09:37:24;;;;;;;42.08;25.23;;;;;;;7.12;100.00;99649.23;1679456;85;20971;-78
2022/11/12 09:39:51;;;;;;;38.53;23.45;;;;;;;7.21;100.00;99647.11;1679609;85;20981;-83
2022/11/12 09:42:20;;;;;;;42.48;25.23;;;;;;;7.30;100.00;99645.79;1679503;85;21460;-79
2022/11/12 09:45:04;;;;;;;37.75;23.45;;;;;;;7.40;100.00;99643.95;1703792;82;20954;-82
2022/11/12 09:47:44;;;;;;;37.78;24.12;;;;;;;7.49;100.00;99652.06;1706054;82;20989;-83
2022/11/12 09:50:23;;;;;;;40.20;23.45;;;;;;;7.60;100.00;99648.64;1685749;82;21049;-79
2022/11/12 09:52:51;;;;;;;;;;;;;;;7.70;100.00;99643.60;1700654;82;21580;-82
2022/11/12 09:55:40;;;;;;;29.75;17.50;;;;;;;7.81;100.00;99646.09;1692612;82;20198;-79
2022/11/12 09:58:11;;;;;;;29.23;18.45;;;;;;;7.94;100.00;99636.49;1711018;82;20994;-78
2022/11/12 10:01:07;;;;;;;31.27;17.75;;;;;;;8.02;100.00;99635.38;1714189;83;21064;-79
2022/11/12 10:04:25;;;;;;;37.78;21.17;;;;;;;8.10;100.00;99635.91;1708351;83;21852;-79
2022/11/12 10:07:09;;;;;;;27.90;18.07;;;;;;;8.21;100.00;99645.16;1714415;83;21002;-79
2022/11/12 10:10:03;;;;;;;37.38;18.23;;;;;;;8.31;100.00;99634.66;1712470;82;21693;-83
2022/11/12 10:12:35;;;;;;;32.00;17.90;;;;;;;8.39;100.00;99626.28;1714025;83;21017;-83
2022/11/12 10:18:22;;;;;;;27.87;15.15;;;;;;;8.67;100.00;99628.41;1711439;82;21664;-79
2022/11/12 10:21:16;;;;;;;26.35;14.73;;;;;;;8.90;100.00;99623.64;1712005;82;21091;-82
2022/11/12 10:23:45;;;;;;;25.75;15.18;;;;;;;9.08;100.00;99627.33;1708030;82;21045;-79
2022/11/12 10:26:14;;;;;;;26.65;15.15;;;;;;;9.11;100.00;99628.21;1714341;82;21013;-80
2022/11/12 10:29:04;;;;;;;21.17;13.18;;;;;;;9.15;100.00;99622.13;1713951;83;20973;-83
2022/11/12 10:31:31;;;;;;;31.00;15.08;;;;;;;9.20;100.00;99626.82;1712834;82;21076;-83
2022/11/12 10:34:09;;;;;;;27.35;15.53;;;;;;;9.25;100.00;99626.44;1720740;82;21002;-79
2022/11/12 10:36:36;;;;;;;26.23;14.03;;;;;;;9.36;100.00;99626.69;1717184;82;20962;-83
2022/11/12 10:39:03;;;;;;;25.72;13.10;;;;;;;9.44;100.00;99630.41;1712529;82;20981;-79
2022/11/12 10:41:32;;;;;;;27.40;14.95;;;;;;;9.55;100.00;99625.53;1712660;82;21454;-83
2022/11/12 10:44:04;;;;;;;25.32;13.50;;;;;;;9.70;100.00;99620.48;1712496;83;26238;-79
2022/11/12 10:46:34;;;;;;;27.25;16.73;;;;;;;9.80;100.00;99617.19;1678841;83;20998;-83
2022/11/12 10:49:08;;;;;;;26.23;17.25;;;;;;;9.96;100.00;99615.66;1728068;82;21032;-83
2022/11/12 10:51:36;;;;;;;21.15;12.05;;;;;;;10.00;100.00;99618.16;1732347;82;21067;-79
2022/11/12 10:54:35;;;;;;;19.50;13.15;;;;;;;10.08;100.00;99610.53;1738043;81;21024;-79
2022/11/12 10:57:23;;;;;;;29.10;17.98;;;;;;;10.11;100.00;99615.46;1711982;82;21673;-83
2022/11/12 11:00:17;;;;;;;21.23;12.90;;;;;;;10.14;100.00;99614.97;1704820;82;21006;-82
2022/11/12 11:02:52;;;;;;;18.12;10.25;;;;;;;10.29;100.00;99612.34;1712928;82;21434;-79
2022/11/12 11:05:39;;;;;;;20.72;14.35;;;;;;;10.34;100.00;99605.66;1713181;82;21564;-79
2022/11/12 11:08:08;;;;;;;12.28;8.75;;;;;;;10.41;98.63;99610.41;1712468;82;21124;-83
2022/11/12 11:10:35;;;;;;;13.98;8.58;;;;;;;10.55;99.29;99604.19;1714141;82;21541;-79
2022/11/12 11:13:23;;;;;;;20.43;10.30;;;;;;;10.67;100.00;99604.95;1694272;82;21074;-79
2022/11/12 11:16:01;;;;;;;13.30;8.58;;;;;;;10.82;100.00;99609.33;1703340;83;20990;-83
2022/11/12 11:18:29;;;;;;;19.55;9.78;;;;;;;10.90;100.00;99604.05;1708273;82;20962;-83
2022/11/12 11:21:45;;;;;;;14.47;10.43;;;;;;;10.96;100.00;99597.66;1710797;83;21008;-80
2022/11/12 11:24:41;;;;;;;13.43;7.37;;;;;;;11.01;100.00;99603.98;1704596;82;21041;-83
2022/11/12 11:27:30;;;;;;;12.35;8.25;;;;;;;11.12;100.00;99598.22;1697179;82;21021;-79
2022/11/12 11:30:11;;;;;;;10.20;6.37;;;;;;;11.25;100.00;99592.45;1707358;82;21095;-80
2022/11/12 11:33:10;;;;;;;12.20;7.12;;;;;;;11.34;100.00;99589.34;1682274;83;20972;-79
2022/11/12 11:36:16;;;;;;;18.30;12.82;;;;;;;11.41;100.00;99588.64;1713612;83;20983;-79
2022/11/12 11:39:07;;;;;;;16.75;11.05;;;;;;;11.56;92.25;99595.68;1709007;82;21034;-79
2022/11/12 11:41:48;;;;;;;19.92;14.78;;;;;;;11.77;96.37;99587.30;1713624;83;21009;-83
2022/11/12 11:44:58;;;;;;;11.18;7.03;;;;;;;11.87;89.76;99582.03;1700973;83;20986;-79
2022/11/12 11:47:40;;;;;;;19.00;10.20;;;;;;;12.00;90.56;99571.36;1708938;82;21100;-80
2022/11/12 11:50:13;;;;;;;45.15;24.82;;;;;;;12.03;94.57;99568.95;1651463;86;20977;-79
2022/11/12 11:53:06;;;;;;;74.42;44.48;;;;;;;12.03;87.45;99570.30;1685203;83;20989;-83
2022/11/12 11:55:56;;;;;;;105.97;59.70;;;;;;;12.11;89.54;99578.56;1651123;82;21080;-79
2022/11/12 11:59:03;;;;;;;48.78;28.00;;;;;;;12.16;92.59;99573.74;1705393;82;21017;-79